Weather reports worldwide

Advertisment
Isola Stromboli, Italy (16416): temperature & dewpoint: 19.09.2018 23:00:00 - 25.09.2018 23:00:00 (CEST)Isola Stromboli, Italy (16416): wind speed: 19.09.2018 23:00:00 - 25.09.2018 23:00:00 (CEST)Isola Stromboli, Italy (16416): wind direction: 19.09.2018 23:00:00 - 25.09.2018 23:00:00 (CEST)Isola Stromboli, Italy (16416): reduced air pressure: 19.09.2018 23:00:00 - 25.09.2018 23:00:00 (CEST)Isola Stromboli, Italy (16416): precipitation: 19.09.2018 23:00:00 - 25.09.2018 23:00:00 (CEST)
Date & Time tt [°C] td [°C] ff [km/h] ff [kn] dd ppp [hPa] rr [mm]
25.09.2018 23:00:00 22,9 15,2 16 9 S 1021,9 -
25.09.2018 22:00:00 23,2 15,4 16 9 S 1021,5 -
25.09.2018 21:00:00 23,4 16,1 8 4 S 1020,8 -
25.09.2018 20:00:00 - - - - - - -
25.09.2018 19:00:00 23,8 16,7 9 5 S 1019,8 -
25.09.2018 18:00:00 24,2 16,9 13 7 S 1019,4 -
25.09.2018 17:00:00 25,1 16,7 9 5 S 1019,3 -
25.09.2018 16:00:00 25,6 17,5 9 5 S 1019,6 -
25.09.2018 15:00:00 26,1 17,4 11 6 S 1019,7 -
25.09.2018 14:00:00 26,5 18,0 9 5 S 1019,8 0,0
25.09.2018 13:00:00 27,7 17,5 11 6 S 1019,9 -
25.09.2018 12:00:00 27,0 18,5 11 6 S 1019,8 -
25.09.2018 11:00:00 26,8 18,6 11 6 S 1019,6 -
25.09.2018 10:00:00 25,8 19,4 11 6 S 1019,1 -
25.09.2018 09:00:00 24,3 19,9 9 5 S 1018,7 -
25.09.2018 08:00:00 23,1 20,8 9 5 S 1018,0 0,0
25.09.2018 07:00:00 23,2 21,9 4 2 S 1017,6 -
25.09.2018 06:00:00 23,6 22,7 0 0 N 1017,3 -
25.09.2018 05:00:00 23,3 22,0 0 0 N 1016,9 -
25.09.2018 04:00:00 23,3 22,0 0 0 N 1017,0 -
25.09.2018 03:00:00 23,0 21,6 2 1 S 1017,3 -
25.09.2018 02:00:00 22,7 21,3 2 1 S 1017,3 0,0
25.09.2018 01:00:00 22,9 21,7 2 1 S 1017,0 -
25.09.2018 00:00:00 23,0 21,9 2 1 S 1016,8 -
24.09.2018 23:00:00 23,0 21,8 2 1 S 1016,8 -
24.09.2018 22:00:00 23,7 22,4 2 1 S 1016,6 -
24.09.2018 21:00:00 23,7 22,1 4 2 S 1015,8 -
24.09.2018 20:00:00 23,8 21,8 2 1 S 1015,2 0,0
24.09.2018 19:00:00 24,6 22,6 8 4 S 1014,9 -
24.09.2018 18:00:00 25,0 23,0 13 7 S 1014,8 -
24.09.2018 17:00:00 25,3 22,5 18 10 S 1014,8 -
24.09.2018 16:00:00 25,7 22,7 18 10 S 1014,9 -
24.09.2018 15:00:00 26,7 22,9 18 10 S 1015,0 -
24.09.2018 14:00:00 25,5 22,9 21 11 S 1015,7 0,0
24.09.2018 13:00:00 25,8 23,0 9 5 S 1016,1 -
24.09.2018 12:00:00 26,3 23,7 8 4 S 1016,0 -
24.09.2018 11:00:00 26,7 23,7 9 5 S 1016,4 -
24.09.2018 10:00:00 26,8 24,0 11 6 S 1016,0 -
24.09.2018 09:00:00 26,0 24,5 5 3 S 1016,0 -
24.09.2018 08:00:00 23,7 23,1 0 0 N 1016,2 0,0
24.09.2018 07:00:00 22,1 21,4 2 1 S 1016,3 -
24.09.2018 06:00:00 22,1 21,2 4 2 S 1016,5 -
24.09.2018 05:00:00 22,0 20,9 2 1 S 1016,7 -
24.09.2018 04:00:00 22,1 21,4 2 1 S 1017,3 -
24.09.2018 03:00:00 22,1 21,2 0 0 N 1017,8 -
24.09.2018 02:00:00 22,2 21,3 4 2 S 1018,3 0,0
24.09.2018 01:00:00 22,1 21,2 4 2 S 1018,7 -
24.09.2018 00:00:00 22,2 21,5 4 2 S 1019,1 -
23.09.2018 23:00:00 22,4 21,5 2 1 S 1019,2 -
23.09.2018 22:00:00 22,6 21,2 2 1 S 1019,2 -
23.09.2018 21:00:00 23,3 21,9 4 2 S 1019,3 -
23.09.2018 20:00:00 23,5 21,5 4 2 S 1018,9 0,0
23.09.2018 19:00:00 24,2 21,8 4 2 S 1019,0 -
23.09.2018 18:00:00 25,0 22,2 4 2 S 1019,1 -
23.09.2018 17:00:00 25,7 22,5 8 4 S 1019,2 -
23.09.2018 16:00:00 26,4 22,8 8 4 S 1019,4 -
23.09.2018 15:00:00 26,7 23,5 8 4 S 1019,9 -
23.09.2018 14:00:00 26,1 22,3 2 1 S 1020,4 0,0
23.09.2018 13:00:00 26,8 23,2 4 2 S 1021,0 -
23.09.2018 12:00:00 25,9 22,1 5 3 S 1020,9 -
23.09.2018 11:00:00 27,2 23,6 5 3 S 1020,6 -
23.09.2018 10:00:00 26,4 24,0 5 3 S 1020,2 -
23.09.2018 09:00:00 25,4 24,1 4 2 S 1019,7 -
23.09.2018 08:00:00 23,8 23,2 2 1 S 1019,2 0,0
23.09.2018 07:00:00 22,7 21,8 5 3 S 1018,9 -
23.09.2018 06:00:00 21,9 20,8 4 2 S 1018,7 -
23.09.2018 05:00:00 22,3 21,2 4 2 S 1018,8 -
23.09.2018 04:00:00 22,4 21,5 4 2 S 1018,7 -
23.09.2018 03:00:00 23,1 22,2 4 2 S 1018,9 -
23.09.2018 02:00:00 23,1 22,2 4 2 S 1019,2 0,0
23.09.2018 01:00:00 23,2 22,1 4 2 S 1019,0 -
23.09.2018 00:00:00 23,4 22,3 2 1 S 1018,9 -
22.09.2018 23:00:00 23,4 22,1 2 1 S 1018,8 -
22.09.2018 22:00:00 23,1 21,7 0 0 N 1018,7 -
22.09.2018 21:00:00 23,6 22,0 0 0 N 1018,3 -
22.09.2018 20:00:00 23,8 21,3 0 0 N 1017,7 0,0
22.09.2018 19:00:00 24,5 21,2 4 2 S 1017,2 -
22.09.2018 18:00:00 25,4 22,0 8 4 S 1016,8 -
22.09.2018 17:00:00 26,1 21,7 8 4 S 1016,7 -
22.09.2018 16:00:00 27,4 22,5 5 3 S 1016,5 -
22.09.2018 15:00:00 27,1 22,2 5 3 S 1016,9 -
22.09.2018 14:00:00 26,8 22,6 8 4 S 1017,0 0,0
22.09.2018 13:00:00 27,6 23,1 8 4 S 1017,1 -
22.09.2018 12:00:00 26,9 23,1 11 6 S 1017,1 -
22.09.2018 11:00:00 26,1 23,7 16 9 S 1017,0 -
22.09.2018 10:00:00 26,5 24,5 15 8 S 1016,6 -
22.09.2018 09:00:00 25,6 24,0 13 7 S 1016,0 -
22.09.2018 08:00:00 24,2 22,8 11 6 S 1015,6 0,0
22.09.2018 07:00:00 23,5 21,9 8 4 S 1015,4 -
22.09.2018 06:00:00 23,4 22,3 8 4 S 1015,0 -
22.09.2018 05:00:00 23,2 21,8 8 4 S 1014,8 -
22.09.2018 04:00:00 23,1 21,5 11 6 S 1014,7 -
22.09.2018 03:00:00 23,2 21,8 5 3 S 1015,0 -
22.09.2018 02:00:00 23,6 22,3 8 4 S 1015,3 0,0
22.09.2018 01:00:00 24,0 22,7 8 4 S 1015,4 -
22.09.2018 00:00:00 24,2 22,4 13 7 S 1015,3 -
21.09.2018 23:00:00 23,8 20,9 8 4 S 1014,8 -
21.09.2018 22:00:00 23,9 21,7 9 5 S 1014,9 -
21.09.2018 21:00:00 24,3 21,2 0 0 N 1014,7 -
21.09.2018 20:00:00 24,4 18,0 0 0 N 1014,5 0,0
21.09.2018 19:00:00 24,6 19,6 5 3 S 1014,1 -
21.09.2018 18:00:00 26,0 21,6 4 2 S 1013,9 -
21.09.2018 17:00:00 26,7 22,5 8 4 S 1013,7 -
21.09.2018 16:00:00 26,3 21,9 5 3 S 1014,0 -
21.09.2018 15:00:00 27,7 22,6 11 6 S 1014,6 -
21.09.2018 14:00:00 28,3 22,3 13 7 S 1014,8 0,0
21.09.2018 13:00:00 27,6 21,6 24 13 S 1014,9 -
21.09.2018 12:00:00 27,5 21,7 21 11 S 1015,0 -
21.09.2018 11:00:00 26,9 21,8 21 11 S 1014,9 -
21.09.2018 10:00:00 26,3 22,3 15 8 S 1014,7 -
21.09.2018 09:00:00 25,4 21,0 21 11 S 1014,4 -
21.09.2018 08:00:00 24,1 21,6 16 9 S 1014,2 0,0
21.09.2018 07:00:00 23,4 21,8 15 8 S 1014,0 -
21.09.2018 06:00:00 23,9 21,7 13 7 S 1013,9 -
21.09.2018 05:00:00 23,9 20,6 13 7 S 1014,0 -
21.09.2018 04:00:00 23,1 21,3 5 3 S 1014,2 -
21.09.2018 03:00:00 23,4 21,4 11 6 S 1014,7 -
21.09.2018 02:00:00 23,8 22,0 13 7 S 1015,1 0,0
21.09.2018 01:00:00 23,9 22,1 9 5 S 1015,2 -
21.09.2018 00:00:00 23,6 21,2 8 4 S 1015,4 -
20.09.2018 23:00:00 23,2 20,3 5 3 S 1015,5 -
20.09.2018 22:00:00 23,6 19,7 5 3 S 1015,7 -
20.09.2018 21:00:00 23,9 19,8 8 4 S 1015,5 -
20.09.2018 20:00:00 24,5 20,1 8 4 S 1015,1 0,0
20.09.2018 19:00:00 25,6 22,4 8 4 S 1015,0 -
20.09.2018 18:00:00 26,0 22,4 11 6 S 1014,9 -
20.09.2018 17:00:00 27,2 23,4 11 6 S 1014,9 -
20.09.2018 16:00:00 27,0 23,2 4 2 S 1015,2 -
20.09.2018 15:00:00 27,9 24,1 11 6 S 1015,5 -
20.09.2018 14:00:00 27,8 21,8 8 4 S 1016,1 0,0
20.09.2018 13:00:00 27,6 25,2 5 3 S 1016,5 -
20.09.2018 12:00:00 26,4 23,6 5 3 S 1016,8 -
20.09.2018 11:00:00 26,1 24,1 4 2 S 1016,7 -
20.09.2018 10:00:00 25,1 22,5 4 2 S 1017,1 -
20.09.2018 09:00:00 25,0 23,9 4 2 S 1016,8 -
20.09.2018 08:00:00 24,0 22,9 2 1 S 1016,5 0,0
20.09.2018 07:00:00 23,6 22,3 0 0 N 1016,4 -
20.09.2018 06:00:00 23,9 22,6 2 1 S 1016,5 -
20.09.2018 05:00:00 23,7 21,9 0 0 N 1016,2 -
20.09.2018 04:00:00 24,0 22,0 2 1 S 1016,4 -
20.09.2018 03:00:00 23,9 21,4 5 3 S 1017,0 -
20.09.2018 02:00:00 23,7 20,0 4 2 S 1017,4 0,0
20.09.2018 01:00:00 23,7 20,2 4 2 S 1017,7 -
20.09.2018 00:00:00 23,0 21,0 4 2 S 1017,7 -
19.09.2018 23:00:00 23,2 21,0 2 1 S 1018,0 -

tt = temperature
td = dewpoint
ff = wind speed
dd = wind direction
ppp = reduced air pressure
rr = precipitation

Next stations